Terminal Aerodrome Forecast
Issued by NWS Mt. Holly, NJ

Current Version | Previous Version | Text Only | Print | Product List | Glossary On
Versions: 1 2 3 4 5 6 7 8 9 10 11 12 13 14 15 16 17 18 19 20 21 22 23 24 25 26 27 28 29 30 31
000
FTUS41 KPHI 012300
TAFPHL
TAF
KPHL 012340Z 0200/0306 20006KT P6SM FEW040 BKN070
     FM020200 23004KT P6SM SCT070
     FM021400 25008KT P6SM SCT200
     FM021800 22013KT P6SM SCT050 BKN150=

USA.gov is the U.S. government's official web portal to all federal, state and local government web resources and services.